Time;durP1;ratioP1;P1;durP2;ratioP2;P2;SDS_P1;SDS_P2;PMS_P1;PMS_P2;Temp;Humidity;BMP_temperature;BMP_pressure;BME280_temperature;BME280_humidity;BME280_pressure;Samples;Min_cycle;Max_cycle;Signal;HPM_P1;HPM_P2
2023/08/27 00:02:03;;;;;;;0.10;0.10;;;;;;;17.95;69.02;101002.09;5056453;28;20025;-80
2023/08/27 00:04:29;;;;;;;0.40;0.40;;;;;;;17.95;69.04;101009.28;5059245;28;20033;-83
2023/08/27 00:06:55;;;;;;;0.10;0.10;;;;;;;17.94;69.03;101010.22;5059528;28;20028;-83
2023/08/27 00:09:22;;;;;;;0.10;0.10;;;;;;;17.93;68.76;101003.97;5063355;28;20029;-83
2023/08/27 00:11:48;;;;;;;0.03;0.03;;;;;;;17.93;69.07;101003.09;5064653;28;20048;-83
2023/08/27 00:14:14;;;;;;;0.10;0.10;;;;;;;17.93;68.76;101003.09;5062913;28;20036;-82
2023/08/27 00:16:40;;;;;;;0.10;0.10;;;;;;;17.93;68.83;101003.09;5064188;28;20033;-80
2023/08/27 00:19:06;;;;;;;0.10;0.10;;;;;;;17.91;68.95;100994.28;5051332;28;20023;-80
2023/08/27 00:21:32;;;;;;;0.10;0.10;;;;;;;17.90;68.67;101005.94;5056049;28;20033;-81
2023/08/27 00:23:58;;;;;;;0.10;0.10;;;;;;;17.87;68.65;101006.06;5058158;28;20032;-81
2023/08/27 00:26:24;;;;;;;0.10;0.10;;;;;;;17.83;68.81;101007.16;5061460;28;20056;-79
2023/08/27 00:28:50;;;;;;;0.10;0.10;;;;;;;17.79;68.81;100996.59;5061853;28;20064;-82
2023/08/27 00:31:16;;;;;;;0.05;0.05;;;;;;;17.76;68.83;100995.88;5062141;28;20025;-82
2023/08/27 00:33:43;;;;;;;0.63;0.55;;;;;;;17.74;69.00;100992.41;5062943;28;20024;-81
2023/08/27 00:36:09;;;;;;;0.10;0.10;;;;;;;17.73;68.99;100996.91;5061920;28;20037;-82
2023/08/27 00:38:35;;;;;;;1.23;0.40;;;;;;;17.73;69.17;100994.22;5065785;28;20040;-82
2023/08/27 00:41:01;;;;;;;0.45;0.30;;;;;;;17.72;69.44;100983.53;5073809;28;20044;-80
2023/08/27 00:43:28;;;;;;;0.10;0.10;;;;;;;17.73;69.84;100985.28;5064856;28;20040;-83
2023/08/27 00:45:54;;;;;;;0.10;0.10;;;;;;;17.74;70.06;100968.28;5061411;28;20402;-82
2023/08/27 00:48:20;;;;;;;0.10;0.10;;;;;;;17.76;70.16;100966.41;5061797;28;20044;-83
2023/08/27 00:50:46;;;;;;;0.10;0.10;;;;;;;17.77;70.14;100958.28;5060833;28;20029;-83
2023/08/27 00:53:13;;;;;;;0.20;0.20;;;;;;;17.79;70.28;100955.53;5060679;28;20092;-83
2023/08/27 00:55:39;;;;;;;0.10;0.10;;;;;;;17.80;70.42;100943.84;5060394;28;20037;-82
2023/08/27 00:58:05;;;;;;;0.40;0.40;;;;;;;17.79;70.24;100939.44;5060063;28;20095;-81
2023/08/27 01:00:31;;;;;;;0.10;0.10;;;;;;;17.76;70.44;100940.47;5060146;28;20024;-82
2023/08/27 01:02:58;;;;;;;0.10;0.10;;;;;;;17.75;70.37;100941.41;5060093;28;20029;-82
2023/08/27 01:05:25;;;;;;;0.28;0.28;;;;;;;17.76;70.56;100935.09;5059391;28;20163;-82
2023/08/27 01:08:06;;;;;;;0.10;0.10;;;;;;;17.79;70.42;100939.44;5060494;28;20110;-82
2023/08/27 01:16:23;;;;;;;0.10;0.10;;;;;;;17.74;70.27;100941.47;5116046;27;20388;-84
2023/08/27 01:18:51;;;;;;;0.03;0.03;;;;;;;17.72;70.17;100940.66;5116952;28;20047;-84
2023/08/27 01:23:55;;;;;;;1.03;0.93;;;;;;;17.67;70.45;100938.25;5106997;27;1192012;-83
2023/08/27 01:26:45;;;;;;;0.20;0.20;;;;;;;17.65;70.68;100944.63;5134624;28;20034;-83
2023/08/27 01:32:05;;;;;;;0.10;0.10;;;;;;;17.62;70.56;100937.59;5113246;27;1194066;-84
2023/08/27 01:34:32;;;;;;;1.45;1.35;;;;;;;17.58;70.63;100934.19;5132671;27;20496;-80
2023/08/27 01:36:59;;;;;;;0.10;0.10;;;;;;;17.56;70.63;100927.16;5114892;28;20069;-84
2023/08/27 01:39:25;;;;;;;3.53;0.68;;;;;;;17.56;70.47;100927.16;5115654;28;20024;-82
2023/08/27 01:41:52;;;;;;;0.20;0.20;;;;;;;17.53;70.37;100922.81;5114526;28;20134;-81
2023/08/27 01:44:18;;;;;;;0.00;0.00;;;;;;;17.55;70.50;100933.47;5113369;28;20083;-80
2023/08/27 01:46:44;;;;;;;0.20;0.20;;;;;;;17.53;70.28;100927.31;5122419;28;20032;-81
2023/08/27 01:49:10;;;;;;;0.10;0.10;;;;;;;17.54;70.43;100919.19;5120894;28;20031;-82
2023/08/27 01:51:36;;;;;;;0.20;0.20;;;;;;;17.57;69.94;100918.16;5129154;28;20023;-81
2023/08/27 01:54:02;;;;;;;0.10;0.10;;;;;;;17.56;70.50;100920.00;5126214;28;20035;-83
2023/08/27 01:56:28;;;;;;;0.10;0.10;;;;;;;17.59;70.32;100918.97;5125970;28;20035;-83
2023/08/27 01:58:55;;;;;;;0.63;0.40;;;;;;;17.60;70.16;100923.41;5117369;28;20031;-81
2023/08/27 02:01:21;;;;;;;0.38;0.38;;;;;;;17.61;70.29;100917.09;5121559;28;20043;-83
2023/08/27 02:03:47;;;;;;;0.10;0.10;;;;;;;17.61;70.46;100917.97;5119505;28;20055;-83
2023/08/27 02:06:13;;;;;;;0.10;0.10;;;;;;;17.62;70.37;100925.06;5106329;28;20076;-83
2023/08/27 02:08:39;;;;;;;0.10;0.10;;;;;;;17.62;70.24;100924.19;5104646;28;20409;-83
2023/08/27 02:11:05;;;;;;;0.10;0.10;;;;;;;17.62;70.21;100924.19;5114272;28;20032;-83
2023/08/27 02:13:31;;;;;;;0.10;0.10;;;;;;;17.65;69.97;100928.53;5110913;28;20028;-83
2023/08/27 02:15:57;;;;;;;0.20;0.20;;;;;;;17.66;69.96;100930.25;5108014;28;20039;-83
2023/08/27 02:18:23;;;;;;;0.20;0.20;;;;;;;17.68;70.05;100931.91;5115550;28;20031;-83
2023/08/27 02:20:49;;;;;;;0.00;0.00;;;;;;;17.70;69.83;100916.63;5115316;28;20069;-83
2023/08/27 02:23:15;;;;;;;0.20;0.20;;;;;;;17.74;69.82;100926.25;5115181;28;20047;-83
2023/08/27 02:25:42;;;;;;;0.35;0.35;;;;;;;17.72;70.03;100914.75;5114881;28;20035;-82
2023/08/27 02:28:09;;;;;;;0.10;0.10;;;;;;;17.72;69.80;100916.56;5111477;28;20027;-80
2023/08/27 02:30:35;;;;;;;0.20;0.20;;;;;;;17.72;70.00;100920.13;5103299;28;20036;-78
2023/08/27 02:33:01;;;;;;;0.10;0.10;;;;;;;17.75;69.96;100927.13;5095420;28;20078;-81
2023/08/27 02:35:27;;;;;;;0.10;0.10;;;;;;;17.74;70.00;100920.91;5100631;28;20099;-80
2023/08/27 02:37:53;;;;;;;0.10;0.10;;;;;;;17.75;70.04;100925.31;5110211;28;20028;-79
2023/08/27 02:40:19;;;;;;;0.08;0.08;;;;;;;17.76;70.07;100932.41;5113208;28;20027;-80
2023/08/27 02:42:46;;;;;;;0.30;0.30;;;;;;;17.74;70.45;100928.06;5100646;28;20508;-81
2023/08/27 02:45:12;;;;;;;0.10;0.10;;;;;;;17.72;70.43;100927.28;5098608;28;20032;-78
2023/08/27 02:47:39;;;;;;;0.52;0.52;;;;;;;17.75;69.97;100933.34;5099265;28;20031;-78
2023/08/27 02:50:06;;;;;;;0.10;0.10;;;;;;;17.76;70.20;100928.88;5099270;28;20023;-80
2023/08/27 02:52:32;;;;;;;0.30;0.30;;;;;;;17.72;70.35;100922.81;5098865;28;20070;-81
2023/08/27 02:54:58;;;;;;;0.55;0.55;;;;;;;17.74;70.33;100923.56;5099014;28;20038;-81
2023/08/27 02:57:24;;;;;;;0.40;0.40;;;;;;;17.76;70.30;100927.06;5098649;28;20653;-81
2023/08/27 02:59:50;;;;;;;0.45;0.45;;;;;;;17.78;70.26;100922.50;5098502;28;20032;-81
2023/08/27 03:02:16;;;;;;;0.15;0.15;;;;;;;17.79;70.38;100921.56;5099926;28;20024;-81
2023/08/27 03:04:42;;;;;;;0.10;0.10;;;;;;;17.79;70.50;100923.34;5108611;28;20020;-80
2023/08/27 03:07:09;;;;;;;0.68;0.68;;;;;;;17.79;70.33;100916.22;5104404;28;20036;-79
2023/08/27 03:09:37;;;;;;;0.68;0.68;;;;;;;17.77;69.95;100923.44;5101443;28;20031;-78
2023/08/27 03:12:03;;;;;;;0.47;0.47;;;;;;;17.76;70.45;100924.38;5089980;28;20056;-80
2023/08/27 03:14:30;;;;;;;0.40;0.40;;;;;;;17.77;70.41;100923.44;5096485;28;20032;-81
2023/08/27 03:16:56;;;;;;;0.10;0.10;;;;;;;17.76;70.37;100920.84;5098410;28;20028;-81
2023/08/27 03:19:22;;;;;;;0.10;0.10;;;;;;;17.75;70.73;100924.47;5097760;28;20032;-81
2023/08/27 03:21:48;;;;;;;0.35;0.35;;;;;;;17.77;70.67;100919.91;5098405;28;20577;-81
2023/08/27 03:24:14;;;;;;;0.10;0.10;;;;;;;17.76;70.72;100919.03;5098666;28;20076;-81
2023/08/27 03:26:40;;;;;;;0.52;0.30;;;;;;;17.78;70.61;100909.09;5096739;28;20039;-81
2023/08/27 03:29:06;;;;;;;0.10;0.10;;;;;;;17.82;70.54;100919.66;5090903;28;20108;-81
2023/08/27 03:31:32;;;;;;;0.28;0.28;;;;;;;17.85;70.45;100924.88;5091886;28;20115;-81
2023/08/27 03:33:58;;;;;;;0.10;0.10;;;;;;;17.86;70.58;100921.25;5097993;28;20024;-81
2023/08/27 03:36:24;;;;;;;0.20;0.20;;;;;;;17.84;70.59;100923.13;5098386;28;20117;-81
2023/08/27 03:38:51;;;;;;;0.10;0.10;;;;;;;17.85;70.33;100925.75;5098008;28;20034;-81
2023/08/27 03:41:17;;;;;;;0.10;0.10;;;;;;;17.86;70.44;100934.66;5095407;28;20081;-81
2023/08/27 03:43:43;;;;;;;0.38;0.25;;;;;;;17.79;70.87;100940.31;5082916;28;20056;-81
2023/08/27 03:46:09;;;;;;;0.00;0.00;;;;;;;17.81;70.48;100948.28;5097633;28;20032;-81
2023/08/27 03:48:35;;;;;;;0.15;0.15;;;;;;;17.59;70.14;100940.41;5097849;28;20619;-80
2023/08/27 03:51:01;;;;;;;0.10;0.10;;;;;;;17.58;69.71;100944.03;5082840;28;20138;-80
2023/08/27 03:53:27;;;;;;;0.10;0.10;;;;;;;17.46;69.18;100938.31;5096035;28;20787;-80
2023/08/27 03:55:55;;;;;;;0.52;0.52;;;;;;;17.30;68.91;100937.31;5092996;28;20496;-80
2023/08/27 03:58:21;;;;;;;0.00;0.00;;;;;;;17.26;69.03;100938.41;5096312;28;20044;-79
2023/08/27 04:00:48;;;;;;;0.10;0.10;;;;;;;17.21;69.30;100932.34;5085650;28;20079;-80
2023/08/27 04:03:15;;;;;;;0.00;0.00;;;;;;;17.15;69.37;100936.22;5096295;28;20035;-80
2023/08/27 04:05:41;;;;;;;0.10;0.10;;;;;;;17.08;69.25;100935.59;5096236;28;20039;-80
2023/08/27 04:08:07;;;;;;;0.10;0.10;;;;;;;17.06;69.61;100921.44;5095589;28;20042;-80
2023/08/27 04:10:33;;;;;;;0.10;0.10;;;;;;;17.05;69.73;100914.34;5093520;28;20028;-80
2023/08/27 04:12:59;;;;;;;0.10;0.10;;;;;;;17.04;70.14;100917.94;5097642;28;20020;-80
2023/08/27 04:15:26;;;;;;;0.00;0.00;;;;;;;17.02;70.17;100917.13;5097214;28;20158;-81
2023/08/27 04:17:53;;;;;;;0.10;0.10;;;;;;;17.00;70.32;100913.69;5095174;28;20043;-80
2023/08/27 04:20:19;;;;;;;0.00;0.00;;;;;;;17.00;70.44;100911.00;5097698;28;20050;-80
2023/08/27 04:22:45;;;;;;;0.10;0.10;;;;;;;16.99;70.91;100909.28;5097199;28;20032;-81
2023/08/27 04:25:15;;;;;;;0.10;0.10;;;;;;;16.99;71.38;100901.25;5097062;28;20058;-81
2023/08/27 04:27:41;;;;;;;0.10;0.10;;;;;;;17.00;71.17;100910.13;5095552;28;20059;-81
2023/08/27 04:30:08;;;;;;;0.10;0.10;;;;;;;17.03;71.57;100924.25;5096939;28;20028;-80
2023/08/27 04:32:34;;;;;;;0.10;0.10;;;;;;;17.04;71.63;100920.63;5082335;28;20072;-79
2023/08/27 04:35:00;;;;;;;0.10;0.10;;;;;;;17.04;72.31;100920.63;5082513;28;20055;-79
2023/08/27 04:37:26;;;;;;;0.10;0.10;;;;;;;17.02;71.92;100914.47;5097741;28;20059;-80
2023/08/27 04:39:52;;;;;;;0.10;0.10;;;;;;;17.01;71.71;100920.78;5097084;28;20023;-78
2023/08/27 04:42:18;;;;;;;0.00;0.00;;;;;;;17.00;72.04;100921.72;5086574;28;20033;-79
2023/08/27 04:44:44;;;;;;;0.08;0.08;;;;;;;17.00;71.84;100916.38;5091757;28;20031;-80
2023/08/27 04:47:10;;;;;;;0.10;0.10;;;;;;;17.00;72.05;100913.69;5096559;28;20409;-80
2023/08/27 04:49:36;;;;;;;0.22;0.22;;;;;;;16.98;71.92;100924.47;5095326;28;20028;-80
2023/08/27 04:52:03;;;;;;;0.00;0.00;;;;;;;16.96;71.77;100920.97;5096096;28;20016;-80
2023/08/27 04:54:30;;;;;;;0.10;0.10;;;;;;;16.95;72.11;100918.38;5094236;28;20510;-80
2023/08/27 04:56:56;;;;;;;0.10;0.10;;;;;;;16.93;72.28;100914.91;5091244;28;20409;-80
2023/08/27 04:59:22;;;;;;;0.03;0.03;;;;;;;16.95;72.21;100918.38;5094215;28;20093;-80
2023/08/27 05:01:48;;;;;;;0.10;0.10;;;;;;;16.96;72.31;100914.78;5093732;28;20043;-80
2023/08/27 05:04:14;;;;;;;0.10;0.10;;;;;;;16.97;72.43;100913.81;5095519;28;20170;-80
2023/08/27 05:06:40;;;;;;;0.10;0.10;;;;;;;16.95;72.25;100918.38;5095131;28;20024;-80
2023/08/27 05:09:06;;;;;;;0.10;0.10;;;;;;;16.94;72.50;100920.19;5096439;28;20091;-80
2023/08/27 05:11:32;;;;;;;0.10;0.10;;;;;;;16.93;72.35;100917.56;5092722;28;20044;-80
2023/08/27 05:13:58;;;;;;;0.00;0.00;;;;;;;16.91;72.26;100924.75;5096536;28;20036;-80
2023/08/27 05:16:24;;;;;;;0.03;0.03;;;;;;;16.88;72.23;100922.25;5096404;28;20061;-80
2023/08/27 05:18:50;;;;;;;0.10;0.10;;;;;;;16.87;72.01;100915.16;5094183;28;20032;-80
2023/08/27 05:21:17;;;;;;;0.10;0.10;;;;;;;16.82;71.78;100924.25;5097057;28;20050;-81
2023/08/27 05:23:43;;;;;;;0.10;0.10;;;;;;;16.79;71.95;100916.34;5097107;28;20036;-81
2023/08/27 05:26:09;;;;;;;0.10;0.10;;;;;;;16.77;71.78;100917.34;5088217;28;20037;-78
2023/08/27 05:28:35;;;;;;;0.10;0.10;;;;;;;16.75;71.94;100916.59;5091557;28;20046;-77
2023/08/27 05:31:03;;;;;;;0.10;0.10;;;;;;;16.76;71.97;100923.66;5100629;28;20042;-78
2023/08/27 05:33:29;;;;;;;0.10;0.10;;;;;;;16.77;71.92;100915.56;5084100;28;20031;-80
2023/08/27 05:35:55;;;;;;;0.10;0.10;;;;;;;16.78;72.20;100917.28;5091099;28;20034;-80
2023/08/27 05:38:24;;;;;;;0.10;0.10;;;;;;;16.81;72.09;100916.31;5079499;28;20020;-80
2023/08/27 05:40:51;;;;;;;0.10;0.10;;;;;;;16.80;72.26;100919.91;5089551;28;20043;-81
2023/08/27 05:43:17;;;;;;;0.10;0.10;;;;;;;16.81;72.09;100921.66;5091884;28;20107;-80
2023/08/27 05:45:43;;;;;;;0.10;0.10;;;;;;;16.81;72.15;100922.50;5084048;28;20024;-81
2023/08/27 05:48:09;;;;;;;0.10;0.10;;;;;;;16.84;72.03;100912.63;5096138;28;20028;-81
2023/08/27 05:50:36;;;;;;;0.03;0.03;;;;;;;16.84;72.15;100913.47;5092644;28;20027;-81
2023/08/27 05:53:04;;;;;;;0.10;0.10;;;;;;;16.84;72.08;100912.63;5088402;28;20024;-80
2023/08/27 05:55:30;;;;;;;0.10;0.10;;;;;;;16.81;71.70;100911.81;5091915;28;20115;-81
2023/08/27 05:57:56;;;;;;;0.10;0.10;;;;;;;16.81;71.62;100916.31;5089088;28;20385;-80
2023/08/27 06:00:22;;;;;;;0.17;0.17;;;;;;;16.85;71.55;100911.66;5088026;28;20032;-81
2023/08/27 06:02:48;;;;;;;0.10;0.10;;;;;;;16.89;71.78;100902.56;5084869;28;20051;-80
2023/08/27 06:05:14;;;;;;;0.10;0.10;;;;;;;16.96;71.95;100904.94;5091839;28;20508;-80
2023/08/27 06:07:40;;;;;;;0.17;0.17;;;;;;;17.05;71.98;100898.28;5091003;28;20046;-80
2023/08/27 06:10:08;;;;;;;0.00;0.00;;;;;;;17.14;72.22;100896.97;5088078;28;20032;-80
2023/08/27 06:12:34;;;;;;;0.10;0.10;;;;;;;17.21;72.45;100894.88;5089649;28;20054;-79
2023/08/27 06:15:00;;;;;;;0.10;0.10;;;;;;;17.24;72.60;100887.56;5091278;28;20500;-80
2023/08/27 06:17:26;;;;;;;0.10;0.10;;;;;;;17.28;73.08;100886.50;5093152;28;20021;-80
2023/08/27 06:19:52;;;;;;;0.00;0.00;;;;;;;17.37;73.48;100889.66;5099826;28;20028;-80
2023/08/27 06:22:18;;;;;;;0.10;0.10;;;;;;;17.46;73.28;100887.41;5098453;28;20028;-79
2023/08/27 06:24:45;;;;;;;0.00;0.00;;;;;;;17.54;73.73;100881.69;5096986;28;20046;-79
2023/08/27 06:27:12;;;;;;;0.65;0.65;;;;;;;17.58;74.14;100874.38;5089694;28;20440;-80
2023/08/27 06:29:38;;;;;;;0.43;0.43;;;;;;;17.60;74.28;100880.53;5085129;28;20024;-79
2023/08/27 06:32:05;;;;;;;0.43;0.32;;;;;;;17.63;74.03;100880.38;5089601;28;20037;-79
2023/08/27 06:34:31;;;;;;;0.10;0.10;;;;;;;17.70;73.72;100884.47;5085215;28;20032;-78
2023/08/27 06:36:57;;;;;;;0.10;0.10;;;;;;;17.80;73.50;100874.19;5094752;28;20082;-79
2023/08/27 06:39:23;;;;;;;0.40;0.40;;;;;;;17.88;74.23;100887.19;5084576;28;20036;-78
2023/08/27 06:41:49;;;;;;;0.10;0.10;;;;;;;17.91;74.27;100881.69;5095462;28;20036;-80
2023/08/27 06:44:15;;;;;;;0.10;0.10;;;;;;;17.96;74.32;100885.03;5086185;28;20458;-79
2023/08/27 06:46:41;;;;;;;0.10;0.10;;;;;;;18.00;74.19;100883.94;5096598;28;20515;-80
2023/08/27 06:49:07;;;;;;;0.10;0.10;;;;;;;18.09;74.22;100886.16;5078089;28;20032;-79
2023/08/27 06:51:33;;;;;;;0.20;0.20;;;;;;;18.20;73.92;100888.28;5082496;28;20043;-80
2023/08/27 06:54:00;;;;;;;1.00;1.00;;;;;;;18.25;73.43;100886.22;5094059;28;20024;-79
2023/08/27 06:56:26;;;;;;;0.45;0.45;;;;;;;18.35;73.24;100891.97;5086266;28;20028;-80
2023/08/27 06:58:52;;;;;;;0.20;0.20;;;;;;;18.40;72.99;100884.56;5086518;28;20404;-80
2023/08/27 07:01:18;;;;;;;0.20;0.20;;;;;;;18.51;72.77;100893.88;5096729;28;20028;-79
2023/08/27 07:03:44;;;;;;;0.10;0.10;;;;;;;18.53;71.99;100898.22;5095677;28;20024;-80
2023/08/27 07:06:10;;;;;;;2.05;0.95;;;;;;;18.57;71.85;100891.72;5096920;28;20032;-80
2023/08/27 07:08:36;;;;;;;0.10;0.10;;;;;;;18.58;71.67;100898.84;5097685;28;20036;-80
2023/08/27 07:11:03;;;;;;;0.60;0.35;;;;;;;18.54;71.00;100891.00;5089062;28;20481;-79
2023/08/27 07:13:29;;;;;;;0.10;0.10;;;;;;;18.50;70.34;100895.66;5078037;28;20023;-79
2023/08/27 07:15:57;;;;;;;0.40;0.40;;;;;;;18.53;70.72;100894.63;5096899;28;20028;-78
2023/08/27 07:18:23;;;;;;;0.10;0.10;;;;;;;18.55;70.33;100884.69;5111127;28;20032;-78
2023/08/27 07:20:52;;;;;;;0.20;0.20;;;;;;;18.65;70.72;100888.63;5106186;28;20055;-78
2023/08/27 07:23:18;;;;;;;0.15;0.15;;;;;;;18.66;70.21;100879.63;5103476;28;20026;-81
2023/08/27 07:25:44;;;;;;;1.17;1.10;;;;;;;18.75;69.99;100887.22;5095541;28;20358;-79
2023/08/27 07:28:10;;;;;;;1.08;1.08;;;;;;;18.76;69.62;100886.22;5110636;28;20043;-79
2023/08/27 07:30:37;;;;;;;0.15;0.15;;;;;;;18.80;68.99;100881.56;5112523;28;20039;-78
2023/08/27 07:33:06;;;;;;;0.45;0.45;;;;;;;18.85;67.84;100884.00;5113679;28;20020;-78
2023/08/27 07:35:32;;;;;;;0.10;0.10;;;;;;;18.98;67.98;100878.88;5113884;28;20048;-77
2023/08/27 07:37:58;;;;;;;0.80;0.80;;;;;;;19.08;68.11;100872.06;5100715;28;20040;-80
2023/08/27 07:40:24;;;;;;;0.70;0.70;;;;;;;19.20;67.74;100895.56;5091385;28;20020;-80
2023/08/27 07:42:51;;;;;;;0.10;0.10;;;;;;;19.10;62.78;100882.72;5095656;28;20147;-81
2023/08/27 07:45:17;;;;;;;0.95;0.95;;;;;;;19.22;65.48;100882.03;5084124;28;20626;-81
2023/08/27 07:47:43;;;;;;;0.20;0.20;;;;;;;19.18;63.43;100862.53;5088061;28;20032;-80
2023/08/27 07:50:09;;;;;;;1.02;1.00;;;;;;;19.19;64.13;100866.94;5092509;28;20028;-76
2023/08/27 07:52:35;;;;;;;0.13;0.13;;;;;;;19.25;64.81;100868.41;5093446;28;20047;-77
2023/08/27 07:55:03;;;;;;;0.10;0.10;;;;;;;19.38;64.94;100869.47;5094717;28;20035;-77
2023/08/27 07:57:29;;;;;;;0.10;0.10;;;;;;;19.38;60.84;100858.72;5095046;28;20032;-80
2023/08/27 07:59:55;;;;;;;0.10;0.10;;;;;;;19.37;61.99;100865.03;5093629;28;20119;-81
2023/08/27 08:02:21;;;;;;;0.30;0.30;;;;;;;19.35;61.45;100850.84;5089347;28;20053;-80
2023/08/27 08:04:48;;;;;;;0.10;0.10;;;;;;;19.30;61.35;100846.66;5085018;28;20077;-82
2023/08/27 08:07:14;;;;;;;0.10;0.10;;;;;;;19.37;62.55;100854.28;5100639;28;20084;-81
2023/08/27 08:09:40;;;;;;;0.25;0.25;;;;;;;19.39;61.53;100856.91;5091084;28;20086;-79
2023/08/27 08:12:07;;;;;;;0.10;0.10;;;;;;;19.42;62.09;100872.00;5091661;28;20089;-81
2023/08/27 08:14:33;;;;;;;0.50;0.50;;;;;;;19.38;61.68;100869.47;5100148;28;20046;-79
2023/08/27 08:16:59;;;;;;;0.10;0.10;;;;;;;19.43;62.79;100869.22;5097970;28;20016;-79
2023/08/27 08:19:25;;;;;;;0.38;0.38;;;;;;;19.38;62.86;100872.16;5089671;28;20025;-80
2023/08/27 08:21:51;;;;;;;1.55;1.45;;;;;;;19.29;61.82;100878.06;5091537;28;20028;-80
2023/08/27 08:24:17;;;;;;;0.38;0.38;;;;;;;19.22;62.50;100876.66;5088092;28;20028;-79
2023/08/27 08:26:43;;;;;;;0.75;0.75;;;;;;;19.10;62.68;100872.81;5078241;28;20099;-79
2023/08/27 08:29:10;;;;;;;0.03;0.03;;;;;;;19.02;63.06;100867.88;5087184;28;20028;-79
2023/08/27 08:31:36;;;;;;;0.10;0.10;;;;;;;18.91;62.30;100863.09;5087823;28;20040;-78
2023/08/27 08:34:03;;;;;;;0.30;0.30;;;;;;;18.85;61.90;100860.72;5092141;28;20081;-79
2023/08/27 08:36:29;;;;;;;0.10;0.10;;;;;;;18.86;62.09;100861.59;5094456;28;20370;-80
2023/08/27 08:38:55;;;;;;;0.10;0.10;;;;;;;18.83;61.97;100861.75;5089739;28;20493;-81
2023/08/27 08:41:25;;;;;;;0.10;0.10;;;;;;;18.86;61.94;100864.28;5094948;28;20047;-81
2023/08/27 08:44:01;;;;;;;0.10;0.10;;;;;;;18.80;61.72;100864.63;5094478;28;20021;-80
2023/08/27 08:46:34;;;;;;;0.20;0.20;;;;;;;18.78;61.42;100870.06;5098511;28;20016;-82
2023/08/27 08:49:02;;;;;;;0.10;0.10;;;;;;;18.69;60.91;100882.16;5096561;28;20031;-80
2023/08/27 08:51:30;;;;;;;0.10;0.10;;;;;;;18.62;60.61;100878.06;5081310;28;20036;-81
2023/08/27 08:54:03;;;;;;;0.10;0.10;;;;;;;18.58;60.89;100876.50;5095130;28;20032;-82
2023/08/27 08:56:37;;;;;;;0.10;0.10;;;;;;;18.55;61.34;100882.03;5086825;28;20046;-81
2023/08/27 08:59:05;;;;;;;0.10;0.10;;;;;;;18.48;60.45;100881.50;5086719;28;20054;-82
2023/08/27 09:01:32;;;;;;;0.10;0.10;;;;;;;18.49;60.61;100887.72;5097795;28;20031;-82
2023/08/27 09:04:01;;;;;;;0.10;0.10;;;;;;;18.43;60.94;100887.09;5091362;28;20021;-81
2023/08/27 09:06:27;;;;;;;0.10;0.10;;;;;;;18.38;59.71;100886.47;5089790;28;20031;-81
2023/08/27 09:08:55;;;;;;;0.08;0.08;;;;;;;18.36;59.46;100883.00;5090747;28;20032;-81
2023/08/27 09:11:21;;;;;;;0.10;0.10;;;;;;;18.52;60.32;100875.00;5094924;28;20508;-80
2023/08/27 09:13:48;;;;;;;0.08;0.08;;;;;;;18.80;60.04;100875.34;5088112;28;20043;-81
2023/08/27 09:16:15;;;;;;;0.10;0.10;;;;;;;19.06;58.98;100869.44;5097587;28;20092;-82
2023/08/27 09:18:41;;;;;;;0.10;0.10;;;;;;;19.35;58.46;100866.06;5087888;28;20035;-81
2023/08/27 09:21:07;;;;;;;0.10;0.10;;;;;;;19.57;57.60;100871.09;5092466;28;20415;-80
2023/08/27 09:23:37;;;;;;;0.45;0.45;;;;;;;19.77;55.47;100864.56;5089172;28;20505;-82
2023/08/27 09:26:04;;;;;;;0.10;0.10;;;;;;;19.95;55.53;100881.50;5083001;28;20017;-82
2023/08/27 09:28:32;;;;;;;0.00;0.00;;;;;;;19.93;53.70;100871.78;5092995;28;20092;-79
2023/08/27 09:31:01;;;;;;;0.10;0.10;;;;;;;20.03;53.65;100871.13;5097995;28;20032;-81
2023/08/27 09:33:42;;;;;;;0.10;0.10;;;;;;;20.15;53.45;100876.72;5096802;28;20436;-81
2023/08/27 09:36:09;;;;;;;0.10;0.10;;;;;;;20.04;51.76;100880.06;5083603;28;20024;-81
2023/08/27 09:38:35;;;;;;;0.00;0.00;;;;;;;20.15;53.79;100892.88;5092864;28;20028;-79
2023/08/27 09:41:18;;;;;;;0.10;0.10;;;;;;;20.08;52.08;100881.63;5085881;28;20103;-81
2023/08/27 09:43:59;;;;;;;0.10;0.10;;;;;;;20.12;54.01;100887.69;5097724;28;20035;-82
2023/08/27 09:46:25;;;;;;;0.10;0.10;;;;;;;19.92;53.01;100876.28;5097528;28;20031;-80
2023/08/27 09:49:08;;;;;;;0.47;0.47;;;;;;;19.97;54.35;100871.47;5096529;28;20031;-81
2023/08/27 09:51:36;;;;;;;0.10;0.10;;;;;;;19.82;53.65;100864.31;5094592;28;20040;-81
2023/08/27 09:54:15;;;;;;;0.15;0.15;;;;;;;19.87;54.12;100862.25;5087746;28;20028;-82
2023/08/27 09:56:45;;;;;;;0.10;0.10;;;;;;;19.78;54.17;100868.13;5088063;28;20034;-82
2023/08/27 09:59:16;;;;;;;0.10;0.10;;;;;;;19.66;53.95;100885.81;5102637;28;20036;-81
2023/08/27 10:01:47;;;;;;;0.08;0.08;;;;;;;19.48;54.58;100891.31;5086011;28;20485;-82
2023/08/27 10:04:13;;;;;;;0.10;0.10;;;;;;;19.35;54.38;100887.56;5097090;28;20031;-80
2023/08/27 10:06:39;;;;;;;0.10;0.10;;;;;;;19.22;54.83;100893.63;5089005;28;20036;-80
2023/08/27 10:09:07;;;;;;;0.10;0.10;;;;;;;18.97;55.15;100894.13;5094152;28;20028;-82
2023/08/27 10:11:33;;;;;;;0.10;0.10;;;;;;;18.87;55.54;100898.22;5088195;28;20020;-82
2023/08/27 10:14:00;;;;;;;0.32;0.32;;;;;;;18.79;56.26;100897.75;5090044;28;20024;-82
2023/08/27 10:16:30;;;;;;;0.00;0.00;;;;;;;18.69;56.29;100890.22;5095526;28;20054;-83
2023/08/27 10:18:57;;;;;;;0.10;0.10;;;;;;;18.56;57.18;100886.44;5107974;28;20077;-82
2023/08/27 10:21:24;;;;;;;0.10;0.10;;;;;;;18.51;57.80;100872.41;5097568;28;20031;-80
2023/08/27 10:23:52;;;;;;;0.10;0.10;;;;;;;18.47;59.04;100868.13;5102595;28;20064;-79
2023/08/27 10:26:19;;;;;;;0.10;0.10;;;;;;;18.40;59.10;100873.81;5087457;28;20036;-81
2023/08/27 10:28:45;;;;;;;0.10;0.10;;;;;;;18.35;59.40;100878.56;5099444;28;20040;-80
2023/08/27 10:31:13;;;;;;;0.10;0.10;;;;;;;18.33;59.73;100885.84;5103507;28;20035;-78
2023/08/27 10:33:39;;;;;;;0.10;0.10;;;;;;;18.31;60.49;100874.31;5093431;28;20761;-81
2023/08/27 10:36:13;;;;;;;0.17;0.17;;;;;;;18.40;60.90;100876.50;5102474;28;20554;-80
2023/08/27 10:38:41;;;;;;;0.10;0.10;;;;;;;18.50;61.67;100873.34;5105151;28;20024;-80
2023/08/27 10:41:07;;;;;;;0.10;0.10;;;;;;;18.59;63.68;100910.41;5102734;28;20028;-81
2023/08/27 10:43:34;;;;;;;0.40;0.40;;;;;;;18.69;62.67;100909.00;5096897;28;20058;-80
2023/08/27 10:46:18;;;;;;;0.10;0.10;;;;;;;18.88;61.57;100910.72;5098568;28;20106;-79
2023/08/27 10:48:50;;;;;;;0.10;0.10;;;;;;;18.98;61.49;100906.59;5095643;28;20031;-80
2023/08/27 10:51:18;;;;;;;0.40;0.40;;;;;;;19.07;61.12;100911.44;5100116;28;20028;-79
2023/08/27 10:59:09;;;;;;;0.10;0.10;;;;;;;19.70;60.40;100925.91;5096741;27;20364;-79
2023/08/27 11:01:38;;;;;;;0.10;0.10;;;;;;;19.80;58.44;100933.41;5097980;28;20068;-81
2023/08/27 11:04:06;;;;;;;0.20;0.20;;;;;;;19.85;57.09;100945.69;5097209;28;20100;-83
2023/08/27 11:11:56;;;;;;;0.45;0.45;;;;;;;20.01;56.04;100936.72;5063126;28;20392;-82
2023/08/27 11:14:24;;;;;;;0.10;0.10;;;;;;;20.12;57.14;100941.47;5044089;28;20100;-82
2023/08/27 11:17:06;;;;;;;0.00;0.00;;;;;;;20.15;56.32;100934.09;5044512;28;20091;-82
2023/08/27 11:19:35;;;;;;;0.10;0.10;;;;;;;20.04;56.59;100940.09;5054401;28;20025;-82
2023/08/27 11:22:22;;;;;;;0.08;0.08;;;;;;;20.07;56.49;100938.19;5039436;28;20061;-82
2023/08/27 11:27:27;;;;;;;0.10;0.10;;;;;;;19.98;56.85;100929.69;5107050;27;20141;-81
2023/08/27 11:29:55;;;;;;;0.10;0.10;;;;;;;20.01;56.40;100917.88;5096930;28;20563;-82
2023/08/27 11:32:21;;;;;;;0.10;0.10;;;;;;;19.98;54.64;100921.63;5086693;28;20036;-82
2023/08/27 11:34:52;;;;;;;0.10;0.10;;;;;;;20.11;55.92;100913.72;5085544;28;20040;-82
2023/08/27 11:37:21;;;;;;;0.20;0.20;;;;;;;20.18;55.27;100919.59;5097062;28;20095;-80
2023/08/27 11:39:48;;;;;;;0.10;0.10;;;;;;;20.30;54.87;100921.56;5096652;28;20076;-80
2023/08/27 11:42:16;;;;;;;0.05;0.05;;;;;;;20.47;55.34;100923.25;5101280;28;20093;-80
2023/08/27 11:44:47;;;;;;;0.05;0.05;;;;;;;20.63;54.78;100925.00;5093067;28;20064;-82
2023/08/27 11:47:14;;;;;;;0.10;0.10;;;;;;;20.68;54.67;100912.13;5096922;28;20385;-80
2023/08/27 11:49:40;;;;;;;0.30;0.30;;;;;;;20.83;54.60;100923.78;5095179;28;20086;-82